Time;durP1;ratioP1;P1;durP2;ratioP2;P2;SDS_P1;SDS_P2;PMS_P1;PMS_P2;Temp;Humidity;BMP_temperature;BMP_pressure;BME280_temperature;BME280_humidity;BME280_pressure;Samples;Min_cycle;Max_cycle;Signal;HPM_P1;HPM_P2
2022/06/10 00:00:49;;;;;;;9.20;3.05;;;;;;;14.95;74.35;102101.31;5038127;28;20024;-70
2022/06/10 00:03:17;;;;;;;6.97;3.00;;;;;;;14.91;74.70;102102.06;5037175;28;20039;-69
2022/06/10 00:05:47;;;;;;;7.28;2.67;;;;;;;14.91;74.21;102102.06;5042574;28;20119;-70
2022/06/10 00:08:19;;;;;;;12.00;2.90;;;;;;;14.97;74.18;102106.53;5038507;28;20040;-71
2022/06/10 00:10:45;;;;;;;11.32;3.03;;;;;;;14.89;74.15;102102.84;5038639;28;20037;-70
2022/06/10 00:13:13;;;;;;;11.05;3.08;;;;;;;14.88;74.36;102104.56;5038221;28;20021;-69
2022/06/10 00:15:38;;;;;;;11.27;3.20;;;;;;;14.85;74.61;102096.69;5040866;28;20033;-70
2022/06/10 00:18:05;;;;;;;8.30;3.25;;;;;;;14.86;74.65;102095.84;5023125;28;20033;-70
2022/06/10 00:20:32;;;;;;;10.52;2.97;;;;;;;14.74;74.80;102105.84;5035404;28;20379;-70
2022/06/10 00:22:58;;;;;;;10.80;3.03;;;;;;;14.71;74.26;102100.59;5037059;28;20037;-69
2022/06/10 00:25:24;;;;;;;11.90;2.92;;;;;;;14.70;74.40;102102.31;5032576;28;20035;-69
2022/06/10 00:27:49;;;;;;;7.18;2.80;;;;;;;14.75;74.67;102097.28;5040411;28;20412;-72
2022/06/10 00:30:18;;;;;;;8.90;2.83;;;;;;;14.79;74.74;102101.69;5035406;28;20043;-69
2022/06/10 00:32:44;;;;;;;9.43;2.97;;;;;;;14.77;75.05;102100.78;5038378;28;20021;-69
2022/06/10 00:35:10;;;;;;;7.28;3.00;;;;;;;14.75;74.52;102100.72;5037578;28;20090;-71
2022/06/10 00:37:35;;;;;;;10.57;3.33;;;;;;;14.73;74.45;102089.44;5041679;28;20039;-72
2022/06/10 00:40:01;;;;;;;9.07;2.83;;;;;;;14.70;74.61;102096.25;5036883;28;20025;-71
2022/06/10 00:42:27;;;;;;;12.70;3.08;;;;;;;14.70;74.88;102104.88;5024821;28;20033;-70
2022/06/10 00:44:53;;;;;;;10.40;3.00;;;;;;;14.70;74.65;102093.66;5042401;28;20029;-71
2022/06/10 00:47:51;;;;;;;10.80;2.90;;;;;;;14.67;74.75;102091.84;5039680;28;20833;-69
2022/06/10 00:50:19;;;;;;;10.30;2.83;;;;;;;14.71;75.31;102098.88;4994602;28;20052;-70
2022/06/10 00:52:50;;;;;;;9.87;2.97;;;;;;;14.69;75.08;102090.19;5035776;28;20057;-70
2022/06/10 00:55:17;;;;;;;11.00;2.80;;;;;;;14.69;75.50;102089.31;5041984;28;20033;-69
2022/06/10 00:57:45;;;;;;;11.38;2.75;;;;;;;14.75;74.79;102094.69;5021784;28;20068;-70
2022/06/10 01:00:17;;;;;;;12.30;3.25;;;;;;;14.71;75.12;102092.81;5039417;28;20036;-71
2022/06/10 01:02:42;;;;;;;10.70;2.92;;;;;;;14.62;75.19;102087.34;5039834;28;20167;-69
2022/06/10 01:05:16;;;;;;;10.98;3.28;;;;;;;14.66;75.04;102084.91;5033194;28;20138;-70
2022/06/10 01:08:03;;;;;;;10.75;3.08;;;;;;;14.70;75.11;102089.34;5039093;28;20033;-69
2022/06/10 01:10:42;;;;;;;16.20;3.40;;;;;;;14.67;75.29;102084.06;5038661;28;20036;-69
2022/06/10 01:13:31;;;;;;;9.77;3.10;;;;;;;14.70;75.69;102083.31;5036891;28;20037;-70
2022/06/10 01:16:09;;;;;;;9.52;2.70;;;;;;;14.72;75.75;102086.81;5035548;28;20033;-69
2022/06/10 01:18:49;;;;;;;12.10;2.67;;;;;;;14.71;75.02;102088.50;5039530;28;20033;-72
2022/06/10 01:21:33;;;;;;;9.90;2.90;;;;;;;14.75;75.72;102090.38;5039248;28;20416;-69
2022/06/10 01:24:19;;;;;;;11.95;3.35;;;;;;;14.75;76.29;102092.09;5036976;28;20107;-70
2022/06/10 01:29:59;;;;;;;10.20;3.05;;;;;;;14.78;75.50;102092.16;5038974;28;20143;-70
2022/06/10 01:32:58;;;;;;;8.40;2.97;;;;;;;14.78;75.53;102089.56;5038826;28;20086;-71
2022/06/10 01:35:39;;;;;;;8.65;2.80;;;;;;;14.81;76.29;102091.41;5020863;28;20045;-70
2022/06/10 01:38:23;;;;;;;10.98;3.13;;;;;;;14.82;76.01;102094.03;5034976;28;20636;-69
2022/06/10 01:41:50;;;;;;;9.52;2.63;;;;;;;14.86;75.16;102087.22;5029058;28;20025;-69
2022/06/10 01:44:37;;;;;;;12.00;2.72;;;;;;;14.85;75.06;102086.34;4999042;28;20044;-72
2022/06/10 01:47:05;;;;;;;10.35;2.65;;;;;;;14.81;76.09;102094.88;5035674;28;20352;-70
2022/06/10 01:49:37;;;;;;;12.32;3.00;;;;;;;14.82;75.05;102090.56;5036018;28;20059;-69
2022/06/10 01:52:09;;;;;;;15.05;2.53;;;;;;;14.84;75.12;102088.88;5036108;28;20024;-69
2022/06/10 01:55:18;;;;;;;11.68;3.10;;;;;;;14.89;74.75;102085.59;5036980;28;20058;-71
2022/06/10 01:57:52;;;;;;;;;;;;;;;15.00;74.53;102092.00;5035230;28;20036;-71
2022/06/10 02:00:21;;;;;;;12.00;2.75;;;;;;;14.93;75.50;102091.78;5037884;28;19927;-69
2022/06/10 02:02:58;;;;;;;15.00;3.03;;;;;;;14.92;75.13;102089.97;5039129;28;20038;-71
2022/06/10 02:05:27;;;;;;;8.27;2.45;;;;;;;14.92;75.02;102089.97;5040822;28;20030;-71
2022/06/10 02:08:14;;;;;;;9.52;2.67;;;;;;;14.93;75.66;102099.53;5021134;28;20020;-71
2022/06/10 02:10:51;;;;;;;10.45;2.65;;;;;;;14.91;75.67;102083.94;5036331;28;20060;-69
2022/06/10 02:13:25;;;;;;;12.52;2.88;;;;;;;14.92;74.69;102087.38;5037629;28;20533;-69
2022/06/10 02:15:54;;;;;;;7.70;2.33;;;;;;;14.90;75.71;102089.94;5039508;28;20427;-71
2022/06/10 02:18:41;;;;;;;9.70;2.35;;;;;;;14.93;76.26;102094.34;5040299;28;21307;-69
2022/06/10 02:21:16;;;;;;;10.30;2.53;;;;;;;14.92;75.56;102089.97;5038563;28;20078;-70
2022/06/10 02:23:47;;;;;;;11.32;2.72;;;;;;;14.87;75.37;102084.69;5040006;28;20048;-70
2022/06/10 02:26:14;;;;;;;12.15;2.90;;;;;;;14.88;75.62;102099.41;5038898;28;20037;-69
2022/06/10 02:28:47;;;;;;;12.45;2.60;;;;;;;14.94;75.74;102090.94;5039454;28;20575;-70
2022/06/10 02:31:25;;;;;;;12.32;2.60;;;;;;;14.95;75.56;102101.31;5039400;28;20475;-72
2022/06/10 02:33:50;;;;;;;10.30;2.60;;;;;;;14.95;75.25;102103.91;5044518;28;20040;-69
2022/06/10 02:36:42;;;;;;;11.90;2.90;;;;;;;14.99;75.60;102100.59;5039193;28;20028;-70
2022/06/10 02:39:17;;;;;;;13.68;2.80;;;;;;;14.95;75.41;102106.50;5043704;28;20037;-70
2022/06/10 02:41:58;;;;;;;12.48;2.67;;;;;;;14.97;75.38;102104.81;5040098;28;20127;-71
2022/06/10 02:44:35;;;;;;;13.85;2.83;;;;;;;14.95;75.70;102101.31;5039849;28;20025;-70
2022/06/10 02:47:27;;;;;;;10.77;2.42;;;;;;;14.97;75.51;102101.38;5032506;28;20475;-69
2022/06/10 02:49:53;;;;;;;13.93;2.92;;;;;;;14.94;75.88;102098.69;5039123;28;20041;-71
2022/06/10 02:52:21;;;;;;;10.23;2.58;;;;;;;14.96;76.41;102092.72;5040105;28;20494;-70
2022/06/10 02:54:47;;;;;;;7.18;2.17;;;;;;;14.97;76.42;102099.66;5038568;28;20040;-70
2022/06/10 02:57:18;;;;;;;10.90;2.20;;;;;;;15.00;77.01;102107.53;5036249;28;20028;-71
2022/06/10 03:02:39;;;;;;;12.63;2.35;;;;;;;15.02;76.53;102103.25;5038237;28;20032;-69
2022/06/10 03:05:20;;;;;;;11.93;2.47;;;;;;;15.02;76.83;102107.56;5037136;28;20107;-70
2022/06/10 03:08:01;;;;;;;11.25;2.65;;;;;;;15.03;76.80;102106.72;5044935;28;20104;-70
2022/06/10 03:10:37;;;;;;;9.52;2.47;;;;;;;15.05;77.47;102111.97;5037801;28;20488;-71
2022/06/10 03:13:21;;;;;;;10.27;2.17;;;;;;;15.05;76.96;102109.38;5021917;28;20025;-69
2022/06/10 03:16:06;;;;;;;10.52;2.13;;;;;;;15.11;76.65;102119.94;5039276;28;20111;-69
2022/06/10 03:18:47;;;;;;;11.88;2.30;;;;;;;15.05;76.59;102124.94;5038196;28;20028;-70
2022/06/10 03:21:28;;;;;;;9.93;2.00;;;;;;;15.10;76.66;102123.31;5033677;28;20025;-69
2022/06/10 03:24:00;;;;;;;9.60;2.30;;;;;;;15.09;76.87;102131.94;5022970;28;20064;-69
2022/06/10 03:26:47;;;;;;;8.68;2.25;;;;;;;15.12;77.51;102132.03;5018052;28;20032;-69
2022/06/10 03:29:38;;;;;;;10.85;2.30;;;;;;;15.14;77.59;102130.38;5019961;28;20032;-69
2022/06/10 03:32:15;;;;;;;9.48;2.35;;;;;;;15.13;78.16;102131.19;5020622;28;20511;-71
2022/06/10 03:34:48;;;;;;;6.25;2.03;;;;;;;15.13;78.25;102123.44;5021847;28;20039;-71
2022/06/10 03:37:17;;;;;;;16.40;2.58;;;;;;;15.12;78.71;102121.69;5020902;28;20037;-69
2022/06/10 03:39:48;;;;;;;7.95;1.88;;;;;;;15.12;79.80;102121.69;5016526;28;20033;-71
2022/06/10 03:42:17;;;;;;;10.43;2.25;;;;;;;15.13;79.96;102128.63;5001722;28;20036;-71
2022/06/10 03:44:44;;;;;;;9.98;2.55;;;;;;;15.15;79.15;102119.16;5005469;28;20030;-71
2022/06/10 03:47:16;;;;;;;8.75;2.08;;;;;;;15.15;79.16;102117.44;5011867;28;20040;-69
2022/06/10 03:49:49;;;;;;;11.02;2.10;;;;;;;15.14;79.22;102120.00;5002650;28;20507;-69
2022/06/10 03:52:24;;;;;;;10.18;2.28;;;;;;;15.16;79.18;102123.50;5012279;28;20018;-70
2022/06/10 03:54:49;;;;;;;11.15;2.20;;;;;;;15.13;79.39;102126.03;5002601;28;20602;-71
2022/06/10 03:57:17;;;;;;;9.35;2.08;;;;;;;15.19;79.52;102128.78;5008639;28;20038;-70
2022/06/10 03:59:42;;;;;;;10.85;3.13;;;;;;;15.17;79.60;102138.25;5002394;28;20124;-70
2022/06/10 04:02:08;;;;;;;11.77;2.17;;;;;;;15.16;79.34;102132.16;5015610;28;20091;-68
2022/06/10 04:04:33;;;;;;;8.65;2.10;;;;;;;15.17;80.02;102138.25;5000324;28;20033;-69
2022/06/10 04:06:59;;;;;;;7.55;2.13;;;;;;;15.18;80.24;102138.28;5012999;28;20133;-71
2022/06/10 04:09:25;;;;;;;11.63;2.13;;;;;;;15.15;81.03;102139.88;5012486;28;20090;-71
2022/06/10 04:11:50;;;;;;;10.73;2.10;;;;;;;15.16;81.37;102145.09;5003367;28;20053;-69
2022/06/10 04:14:15;;;;;;;11.93;2.58;;;;;;;15.19;82.15;102145.22;5016326;28;20026;-71
2022/06/10 04:16:41;;;;;;;10.77;2.22;;;;;;;15.21;80.91;102147.84;5020060;28;20038;-70
2022/06/10 04:19:06;;;;;;;8.52;2.30;;;;;;;15.17;81.27;102151.19;4998319;28;20480;-70
2022/06/10 04:21:32;;;;;;;10.43;2.42;;;;;;;15.17;80.94;102149.47;5016490;28;20030;-71
2022/06/10 04:23:57;;;;;;;8.68;2.15;;;;;;;15.17;80.81;102146.88;5012186;28;20050;-71
2022/06/10 04:26:23;;;;;;;10.98;2.30;;;;;;;15.17;81.21;102152.06;5021021;28;20120;-72
2022/06/10 04:28:48;;;;;;;8.25;2.05;;;;;;;15.20;82.05;102154.75;5006226;28;20524;-69
2022/06/10 04:31:14;;;;;;;10.02;2.05;;;;;;;15.20;81.61;102170.28;4997762;28;20037;-72
2022/06/10 04:33:39;;;;;;;10.88;2.33;;;;;;;15.19;81.48;102159.88;5015502;28;20399;-71
2022/06/10 04:36:06;;;;;;;8.45;2.10;;;;;;;15.20;82.03;102151.28;5010428;28;20521;-70
2022/06/10 04:38:32;;;;;;;11.38;3.05;;;;;;;15.22;81.54;102149.59;5024504;28;20120;-70
2022/06/10 04:40:58;;;;;;;11.27;2.20;;;;;;;15.23;81.85;102144.47;4991774;28;20036;-70
2022/06/10 04:43:24;;;;;;;10.75;2.78;;;;;;;15.25;81.82;102149.69;5017739;28;20026;-70
2022/06/10 04:45:52;;;;;;;10.35;2.17;;;;;;;15.24;81.93;102145.34;5011330;28;20030;-70
2022/06/10 04:48:18;;;;;;;7.97;1.85;;;;;;;15.26;83.59;102149.75;4995589;28;20029;-70
2022/06/10 04:50:45;;;;;;;9.65;2.13;;;;;;;15.26;82.17;102141.09;5021853;28;20033;-70
2022/06/10 04:53:11;;;;;;;9.88;2.08;;;;;;;15.26;82.70;102143.69;5013353;28;20021;-72
2022/06/10 04:55:37;;;;;;;10.32;2.30;;;;;;;15.30;83.55;102153.31;5017761;28;20037;-71
2022/06/10 04:58:03;;;;;;;10.63;2.10;;;;;;;15.33;82.50;102145.59;5011375;28;20033;-70
2022/06/10 05:00:32;;;;;;;12.13;2.17;;;;;;;15.35;82.52;102156.91;5013283;28;20033;-71
2022/06/10 05:02:58;;;;;;;6.25;2.35;;;;;;;15.32;82.84;102145.56;5013825;28;20030;-70
2022/06/10 05:05:25;;;;;;;8.77;2.13;;;;;;;15.35;81.91;102151.75;5019450;28;20599;-70
2022/06/10 05:07:50;;;;;;;9.45;2.25;;;;;;;15.37;82.22;102144.88;5009889;28;20033;-69
2022/06/10 05:10:17;;;;;;;7.13;2.05;;;;;;;15.38;82.11;102146.63;5016519;28;20033;-70
2022/06/10 05:12:44;;;;;;;14.73;2.17;;;;;;;15.37;81.52;102142.28;5022577;28;20028;-70
2022/06/10 05:15:11;;;;;;;7.13;1.95;;;;;;;15.39;81.48;102144.91;5018423;28;20093;-70
2022/06/10 05:17:36;;;;;;;6.93;1.98;;;;;;;15.43;81.02;102150.22;5010216;28;20032;-70
2022/06/10 05:20:03;;;;;;;9.55;2.10;;;;;;;15.38;81.56;102138.84;5019040;28;20120;-70
2022/06/10 05:22:28;;;;;;;12.32;2.90;;;;;;;15.41;80.89;102141.53;5018030;28;20416;-71
2022/06/10 05:24:53;;;;;;;15.68;2.90;;;;;;;15.42;80.93;102132.94;5042078;28;20049;-70
2022/06/10 05:27:19;;;;;;;9.52;2.35;;;;;;;15.45;80.66;102138.19;5040678;28;20064;-70
2022/06/10 05:29:44;;;;;;;10.38;2.83;;;;;;;15.44;80.58;102136.44;5039794;28;20059;-70
2022/06/10 05:32:09;;;;;;;8.73;2.60;;;;;;;15.48;80.23;102133.09;5036997;28;20476;-71
2022/06/10 05:34:47;;;;;;;14.50;2.88;;;;;;;15.49;80.74;102132.25;5033831;28;20124;-71
2022/06/10 05:37:15;;;;;;;11.25;2.78;;;;;;;15.51;80.97;102127.97;5036009;28;20039;-70
2022/06/10 05:39:41;;;;;;;6.95;2.00;;;;;;;15.55;80.46;102134.16;5032750;28;20036;-70
2022/06/10 05:42:07;;;;;;;10.70;2.60;;;;;;;15.57;80.62;102137.66;5037135;28;20040;-70
2022/06/10 05:44:38;;;;;;;11.20;2.45;;;;;;;15.60;80.86;102137.75;5034886;28;20476;-70
2022/06/10 05:47:07;;;;;;;11.88;2.45;;;;;;;15.59;80.64;102143.75;5020183;28;20037;-71
2022/06/10 05:49:34;;;;;;;9.57;2.30;;;;;;;15.62;80.86;102141.28;5038244;28;20112;-70
2022/06/10 05:52:00;;;;;;;9.52;2.10;;;;;;;15.66;81.30;102139.66;5036097;28;20038;-72
2022/06/10 05:54:26;;;;;;;10.30;2.53;;;;;;;15.68;81.58;102140.59;5036427;28;20112;-69
2022/06/10 05:56:51;;;;;;;13.93;2.85;;;;;;;15.72;81.25;102142.44;5031090;28;20037;-72
2022/06/10 05:59:18;;;;;;;8.65;2.30;;;;;;;15.73;80.98;102150.25;5030363;28;20057;-70
2022/06/10 06:01:45;;;;;;;13.65;2.50;;;;;;;15.77;81.41;102144.31;5032570;28;20033;-70
2022/06/10 06:04:11;;;;;;;11.20;2.20;;;;;;;15.82;81.09;102147.00;5036927;28;20025;-70
2022/06/10 06:06:37;;;;;;;11.77;2.42;;;;;;;15.88;81.29;102149.75;5036471;28;20045;-70
2022/06/10 06:09:03;;;;;;;15.88;2.35;;;;;;;15.93;81.38;102145.59;5030850;28;20029;-69
2022/06/10 06:11:28;;;;;;;8.70;1.80;;;;;;;15.96;80.98;102152.59;5031080;28;20112;-70
2022/06/10 06:13:53;;;;;;;6.57;2.10;;;;;;;15.99;81.00;102152.66;5035898;28;20104;-72
2022/06/10 06:16:19;;;;;;;11.05;2.10;;;;;;;16.04;80.84;102153.66;5033112;28;20511;-71
2022/06/10 06:18:45;;;;;;;8.95;2.05;;;;;;;16.03;80.88;102152.78;5039453;28;20450;-70
2022/06/10 06:21:11;;;;;;;10.85;2.13;;;;;;;16.05;81.52;102156.28;5035371;28;20044;-72
2022/06/10 06:23:37;;;;;;;8.80;2.35;;;;;;;16.07;80.48;102161.50;5034980;28;20037;-70
2022/06/10 06:26:03;;;;;;;8.02;1.85;;;;;;;16.09;80.16;102155.53;5034276;28;20391;-70
2022/06/10 06:28:29;;;;;;;10.85;1.75;;;;;;;16.13;80.49;102155.59;5037636;28;20033;-69
2022/06/10 06:30:54;;;;;;;9.82;1.88;;;;;;;16.14;80.21;102153.06;5026579;28;20029;-71
2022/06/10 06:33:20;;;;;;;14.90;2.45;;;;;;;16.18;80.75;102164.38;5036216;28;20031;-71
2022/06/10 06:35:50;;;;;;;9.60;2.30;;;;;;;16.15;80.08;102152.22;5048005;28;21030;-74
2022/06/10 06:38:16;;;;;;;8.88;1.67;;;;;;;16.21;79.77;102167.06;5058823;28;20646;-72
2022/06/10 06:40:42;;;;;;;9.23;1.77;;;;;;;16.20;81.72;102155.81;5055842;28;20027;-72
2022/06/10 06:43:09;;;;;;;9.63;1.92;;;;;;;16.22;80.73;102166.22;5050961;28;20781;-71
2022/06/10 06:45:36;;;;;;;9.32;1.80;;;;;;;16.23;79.40;102162.78;5057702;28;20040;-71
2022/06/10 06:48:03;;;;;;;9.40;1.52;;;;;;;16.27;80.14;102165.50;5041622;28;20020;-71
2022/06/10 06:50:32;;;;;;;5.35;1.95;;;;;;;16.29;79.43;102171.59;5060369;28;20036;-72
2022/06/10 06:52:57;;;;;;;9.93;1.83;;;;;;;16.31;79.45;102162.13;5045099;28;20093;-71
2022/06/10 06:55:23;;;;;;;7.78;1.77;;;;;;;16.36;79.88;102180.44;5060503;28;20040;-71
2022/06/10 06:57:49;;;;;;;6.43;1.77;;;;;;;16.34;80.08;102179.53;5059805;28;20067;-73
2022/06/10 07:00:16;;;;;;;7.43;1.88;;;;;;;16.39;79.90;102185.72;5056496;28;20467;-72
2022/06/10 07:02:42;;;;;;;10.65;2.00;;;;;;;16.39;79.15;102177.03;5059246;28;20033;-71
2022/06/10 07:05:08;;;;;;;10.77;1.90;;;;;;;16.43;79.22;102179.72;5058242;28;20024;-72
2022/06/10 07:07:34;;;;;;;7.47;1.80;;;;;;;16.44;79.31;102181.53;5061421;28;20050;-73
2022/06/10 07:09:59;;;;;;;6.57;1.42;;;;;;;16.48;79.84;102172.94;5056920;28;20731;-71
2022/06/10 07:12:25;;;;;;;11.85;1.98;;;;;;;16.47;79.21;102168.59;5053429;28;20492;-72
2022/06/10 07:14:50;;;;;;;5.47;1.45;;;;;;;16.53;78.91;102178.25;5063954;28;20032;-71
2022/06/10 07:17:17;;;;;;;9.05;1.67;;;;;;;16.54;78.89;102172.22;5057825;28;20036;-71
2022/06/10 07:19:43;;;;;;;7.00;1.60;;;;;;;16.58;78.82;102177.53;5061072;28;20037;-71
2022/06/10 07:22:09;;;;;;;8.60;1.92;;;;;;;16.62;78.86;102168.06;5047332;28;20035;-71
2022/06/10 07:24:34;;;;;;;6.60;1.80;;;;;;;16.69;78.98;102169.13;5060763;28;20051;-72
2022/06/10 07:27:01;;;;;;;10.45;1.55;;;;;;;16.74;78.95;102172.72;5059125;28;20054;-70
2022/06/10 07:29:27;;;;;;;9.25;1.70;;;;;;;16.80;79.10;102184.13;5032549;28;20028;-70
2022/06/10 07:31:53;;;;;;;8.20;1.70;;;;;;;16.85;78.30;102171.25;5067295;28;20050;-72
2022/06/10 07:34:19;;;;;;;7.28;1.73;;;;;;;16.88;77.10;102180.00;5060530;28;20066;-70
2022/06/10 07:36:45;;;;;;;10.10;1.48;;;;;;;16.93;77.77;102180.13;5071975;28;20089;-71
2022/06/10 07:39:10;;;;;;;5.35;1.58;;;;;;;17.01;77.68;102183.75;5065418;28;20479;-75
2022/06/10 07:44:20;;;;;;;7.90;1.80;;;;;;;17.11;76.81;102179.66;5069498;28;20091;-73
2022/06/10 07:46:50;;;;;;;9.57;1.60;;;;;;;17.16;77.43;102178.88;5066404;28;20048;-73
2022/06/10 07:49:16;;;;;;;9.27;1.52;;;;;;;17.16;76.43;102178.00;5064288;28;20046;-70
2022/06/10 07:51:41;;;;;;;6.35;1.45;;;;;;;17.16;76.67;102173.69;5056484;28;20036;-71
2022/06/10 07:54:08;;;;;;;8.02;1.60;;;;;;;17.18;75.50;102180.66;5041575;28;20414;-71
2022/06/10 07:56:34;;;;;;;9.65;1.55;;;;;;;17.16;75.92;102163.28;5053777;28;20413;-72
2022/06/10 07:59:00;;;;;;;8.93;1.48;;;;;;;17.23;76.32;102171.22;5062825;28;20028;-71
2022/06/10 08:01:27;;;;;;;6.93;1.55;;;;;;;17.26;76.28;102166.09;5064546;28;20048;-72
2022/06/10 08:03:52;;;;;;;7.10;1.60;;;;;;;17.31;76.38;102172.28;5064782;28;20025;-72
2022/06/10 08:06:20;;;;;;;8.40;1.60;;;;;;;17.34;76.58;102175.81;5062278;28;20036;-71
2022/06/10 08:08:46;;;;;;;6.63;1.60;;;;;;;17.39;76.83;102176.78;5067951;28;20032;-72
2022/06/10 08:11:11;;;;;;;7.00;1.45;;;;;;;17.41;76.25;102180.31;5050375;28;20089;-71
2022/06/10 08:13:37;;;;;;;5.93;1.40;;;;;;;17.44;75.33;102182.09;5062507;28;20020;-71
2022/06/10 08:16:03;;;;;;;8.30;1.65;;;;;;;17.49;75.56;102177.88;5065988;28;20032;-71
2022/06/10 08:18:31;;;;;;;7.40;1.65;;;;;;;17.52;75.08;102180.50;5064798;28;20052;-74
2022/06/10 08:23:41;;;;;;;9.20;1.63;;;;;;;17.57;75.21;102181.50;5061676;28;20044;-73
2022/06/10 08:26:08;;;;;;;7.40;1.73;;;;;;;17.60;75.45;102184.16;5067347;28;20052;-72
2022/06/10 08:28:35;;;;;;;6.22;1.20;;;;;;;17.63;73.05;102176.41;5065275;28;20026;-72
2022/06/10 08:31:01;;;;;;;8.23;1.63;;;;;;;17.61;73.29;102182.44;5066680;28;20042;-73
2022/06/10 08:33:26;;;;;;;8.65;1.67;;;;;;;17.66;73.08;102188.63;5064502;28;20402;-72
2022/06/10 08:35:52;;;;;;;8.63;1.38;;;;;;;17.69;75.11;102181.72;5045939;28;20106;-72
2022/06/10 08:38:18;;;;;;;8.95;1.60;;;;;;;17.70;73.00;102180.88;5060336;28;20057;-74
2022/06/10 08:40:56;;;;;;;5.75;1.50;;;;;;;17.78;73.30;102183.69;5050095;28;20044;-74
2022/06/10 08:43:39;;;;;;;8.05;1.60;;;;;;;17.81;72.99;102181.13;5060717;28;20027;-72
2022/06/10 08:46:10;;;;;;;8.73;1.85;;;;;;;17.86;74.05;102182.09;5051730;28;20032;-72
2022/06/10 08:48:58;;;;;;;9.57;1.60;;;;;;;17.89;73.03;102181.28;5060012;28;20134;-71
2022/06/10 08:51:29;;;;;;;9.15;1.95;;;;;;;17.91;72.06;102177.00;5069300;28;20029;-72
2022/06/10 08:54:38;;;;;;;8.32;1.95;;;;;;;17.97;72.71;102179.72;5066678;28;20471;-71
2022/06/10 08:57:28;;;;;;;11.77;2.10;;;;;;;18.02;73.79;102164.16;5020494;28;20061;-72
2022/06/10 08:59:57;;;;;;;15.27;2.28;;;;;;;18.05;72.58;102169.44;5024517;28;20036;-72
2022/06/10 09:02:33;;;;;;;7.80;2.20;;;;;;;18.10;72.85;102175.59;5047381;28;20099;-72
2022/06/10 09:05:21;;;;;;;9.48;2.00;;;;;;;18.19;71.43;102171.41;5067517;28;20040;-71
2022/06/10 09:07:55;;;;;;;10.63;2.30;;;;;;;18.36;70.63;102166.50;5049153;28;20063;-72
2022/06/10 09:10:35;;;;;;;13.52;2.10;;;;;;;18.61;72.06;102166.91;5069179;28;20029;-72
2022/06/10 09:13:20;;;;;;;13.30;3.15;;;;;;;18.75;71.57;102171.53;5043169;28;20096;-72
2022/06/10 09:16:05;;;;;;;10.98;2.45;;;;;;;18.87;71.14;102165.63;5060925;28;20032;-74
2022/06/10 09:18:59;;;;;;;9.63;2.30;;;;;;;19.05;72.34;102185.84;5061222;28;20020;-73
2022/06/10 09:21:40;;;;;;;10.20;2.20;;;;;;;19.21;70.34;102182.59;5059474;28;20475;-74
2022/06/10 09:24:16;;;;;;;12.25;2.47;;;;;;;19.38;69.86;102174.13;5061662;28;20032;-72
2022/06/10 09:26:48;;;;;;;10.13;2.17;;;;;;;19.53;70.56;102171.66;5064959;28;20032;-73
2022/06/10 09:29:14;;;;;;;10.82;2.03;;;;;;;19.65;68.60;102173.59;5061785;28;20143;-72
2022/06/10 09:31:46;;;;;;;9.20;1.98;;;;;;;19.69;67.94;102180.59;5048866;28;20124;-73
2022/06/10 09:34:28;;;;;;;11.30;2.35;;;;;;;19.82;68.53;102178.13;5064726;28;20024;-74
2022/06/10 09:37:06;;;;;;;15.90;2.10;;;;;;;19.87;67.91;102174.72;5027392;28;20048;-73
2022/06/10 09:43:07;;;;;;;8.40;2.10;;;;;;;20.17;68.24;102169.78;5021421;28;20094;-74
2022/06/10 09:45:59;;;;;;;8.13;2.25;;;;;;;20.23;67.59;102175.06;5039661;28;20032;-72
2022/06/10 09:48:36;;;;;;;8.50;1.90;;;;;;;20.27;66.60;102176.84;5010486;28;20033;-72
2022/06/10 09:51:25;;;;;;;8.15;1.92;;;;;;;20.27;67.03;102176.00;5036075;28;20031;-73
2022/06/10 09:54:16;;;;;;;10.20;2.22;;;;;;;20.27;68.24;102176.84;5035032;28;20364;-72
2022/06/10 09:57:17;;;;;;;12.75;2.50;;;;;;;20.26;67.14;102182.94;5033680;28;20793;-72
2022/06/10 09:59:48;;;;;;;9.38;2.13;;;;;;;20.22;66.87;102169.84;5031603;28;20123;-70
2022/06/10 10:02:26;;;;;;;8.02;2.20;;;;;;;20.21;67.84;102179.41;5036629;28;20029;-72
2022/06/10 10:05:18;;;;;;;13.45;2.00;;;;;;;20.20;67.38;102175.03;5036877;28;20041;-71
2022/06/10 10:07:57;;;;;;;9.82;2.20;;;;;;;20.27;67.17;102187.31;5029738;28;20087;-71
2022/06/10 10:10:22;;;;;;;;;;;;;;;20.31;68.67;102175.13;5034489;28;20041;-70
2022/06/10 10:13:23;;;;;;;9.13;2.22;;;;;;;20.39;68.92;102183.06;5029487;28;20360;-70
2022/06/10 10:16:01;;;;;;;9.00;2.60;;;;;;;20.40;66.32;102182.19;5012581;28;20040;-70
2022/06/10 10:18:51;;;;;;;8.90;2.40;;;;;;;20.39;67.38;102180.44;5030089;28;20111;-71
2022/06/10 10:21:50;;;;;;;7.78;2.03;;;;;;;20.37;66.92;102180.41;5038688;28;20076;-69
2022/06/10 10:24:21;;;;;;;9.35;2.30;;;;;;;20.38;66.98;102179.53;5042611;28;20025;-70
2022/06/10 10:26:51;;;;;;;9.80;2.10;;;;;;;20.51;67.16;102171.00;5040001;28;20380;-69
2022/06/10 10:29:18;;;;;;;;;;;;;;;20.67;68.39;102166.75;5026141;28;20115;-71
2022/06/10 10:31:57;;;;;;;10.57;2.05;;;;;;;20.98;67.66;102167.81;5031521;28;19916;-71
2022/06/10 10:34:30;;;;;;;12.50;2.30;;;;;;;21.21;66.58;102167.94;5040364;28;20033;-70
2022/06/10 10:36:59;;;;;;;9.50;2.20;;;;;;;21.38;65.74;102166.31;5045127;28;20044;-72
2022/06/10 10:39:29;;;;;;;8.45;2.20;;;;;;;21.43;65.22;102179.41;5041988;28;20039;-70
2022/06/10 10:42:03;;;;;;;10.63;2.55;;;;;;;21.34;65.41;102167.16;5039359;28;20037;-72
2022/06/10 10:44:38;;;;;;;10.73;2.60;;;;;;;21.26;64.57;102155.75;5041277;28;20037;-71
2022/06/10 10:47:09;;;;;;;9.25;2.60;;;;;;;21.22;64.51;102163.56;5040270;28;20061;-71
2022/06/10 10:49:48;;;;;;;17.17;3.67;;;;;;;21.21;64.96;102159.22;5034241;28;20072;-72
2022/06/10 10:52:27;;;;;;;10.95;2.30;;;;;;;21.25;66.76;102161.84;5041167;28;20040;-70
2022/06/10 10:54:57;;;;;;;9.65;2.45;;;;;;;21.27;65.71;102160.13;5028693;28;20403;-71
2022/06/10 10:57:29;;;;;;;12.77;2.72;;;;;;;21.21;65.24;102161.84;5043330;28;20095;-71
2022/06/10 11:00:10;;;;;;;9.77;2.47;;;;;;;21.20;65.75;102162.69;5040650;28;20025;-72
2022/06/10 11:02:52;;;;;;;8.80;2.40;;;;;;;21.09;65.87;102170.50;5035512;28;20041;-70
2022/06/10 11:05:21;;;;;;;10.35;2.40;;;;;;;21.01;65.84;102161.75;5032675;28;20032;-72
2022/06/10 11:08:04;;;;;;;10.88;2.80;;;;;;;20.90;65.80;102164.28;5048498;28;20219;-71
2022/06/10 11:10:29;;;;;;;9.43;2.38;;;;;;;20.87;66.67;102159.06;5035768;28;20033;-70
2022/06/10 11:13:00;;;;;;;10.05;2.80;;;;;;;20.82;66.39;102164.25;5040344;28;20025;-71
2022/06/10 11:15:30;;;;;;;9.63;2.90;;;;;;;20.84;66.23;102165.13;5041528;28;20037;-71
2022/06/10 11:17:58;;;;;;;9.02;2.42;;;;;;;20.87;65.88;102162.53;5038297;28;20036;-73
2022/06/10 11:20:31;;;;;;;12.77;2.63;;;;;;;20.94;67.37;102162.56;5040438;28;20032;-73
2022/06/10 11:23:32;;;;;;;11.52;2.90;;;;;;;21.05;67.72;102159.16;5034749;28;20029;-70
2022/06/10 11:26:12;;;;;;;13.07;2.15;;;;;;;21.22;67.73;102156.59;4994248;28;20045;-70
2022/06/10 11:28:40;;;;;;;13.05;2.58;;;;;;;21.27;68.05;102165.34;5029086;28;20040;-73
2022/06/10 11:31:22;;;;;;;10.07;2.40;;;;;;;21.27;66.46;102157.50;5030046;28;20038;-74
2022/06/10 11:33:52;;;;;;;11.30;2.20;;;;;;;21.24;65.43;102159.25;5010095;28;20021;-71
2022/06/10 11:36:29;;;;;;;10.13;2.28;;;;;;;21.24;66.62;102165.34;5040718;28;20045;-72
2022/06/10 11:39:17;;;;;;;11.15;2.47;;;;;;;21.21;67.05;102160.09;5026540;28;20047;-70
2022/06/10 11:42:07;;;;;;;14.73;2.22;;;;;;;21.24;67.15;102154.00;5027883;28;20048;-70
2022/06/10 11:44:37;;;;;;;9.73;2.80;;;;;;;21.41;68.98;102149.72;5058040;28;20151;-71
2022/06/10 11:47:04;;;;;;;10.13;2.15;;;;;;;21.53;67.17;102154.13;5060102;28;20033;-70
2022/06/10 11:49:44;;;;;;;10.35;1.88;;;;;;;21.69;67.23;102153.31;5058011;28;20028;-72
2022/06/10 11:52:21;;;;;;;7.05;1.80;;;;;;;21.86;65.52;102143.75;5059686;28;20050;-72
2022/06/10 11:54:54;;;;;;;6.20;1.63;;;;;;;21.92;66.85;102137.66;5056610;28;20037;-72
2022/06/10 12:00:38;;;;;;;14.85;2.20;;;;;;;22.12;65.64;102135.09;5062411;28;20047;-73
2022/06/10 12:03:29;;;;;;;11.90;1.90;;;;;;;22.16;64.89;102139.47;5061594;28;20033;-76